Time;durP1;ratioP1;P1;durP2;ratioP2;P2;SDS_P1;SDS_P2;PMS_P1;PMS_P2;Temp;Humidity;BMP_temperature;BMP_pressure;BME280_temperature;BME280_humidity;BME280_pressure;Samples;Min_cycle;Max_cycle;Signal;HPM_P1;HPM_P2
2021/12/18 13:23:59;;;;;;;6.93;5.37;;;;;;;3.69;82.43;95663.66;4629402;26;20290;-77
2021/12/18 13:26:32;;;;;;;4.73;4.27;;;;;;;3.73;77.51;95667.81;4961801;28;20210;-75
2021/12/18 13:29:02;;;;;;;7.13;6.20;;;;;;;3.55;76.99;95667.78;4963133;28;20218;-74
2021/12/18 13:31:33;;;;;;;11.30;7.83;;;;;;;3.53;75.22;95670.28;4962564;28;20656;-77
2021/12/18 13:34:06;;;;;;;6.77;6.13;;;;;;;3.41;75.43;95668.59;4963205;28;20260;-69
2021/12/18 13:36:44;;;;;;;5.93;5.30;;;;;;;3.05;76.08;95665.91;4962750;28;20706;-74
2021/12/18 13:39:15;;;;;;;5.50;5.00;;;;;;;3.04;76.42;95666.72;4962390;28;20732;-74
2021/12/18 13:41:57;;;;;;;5.43;4.93;;;;;;;2.98;76.69;95664.19;4963104;28;20662;-78
2021/12/18 13:44:24;;;;;;;6.03;5.43;;;;;;;3.16;75.91;95661.78;4961779;28;20249;-71
2021/12/18 13:46:51;;;;;;;7.30;5.30;;;;;;;3.31;75.39;95654.31;4961437;28;20209;-75
2021/12/18 13:49:17;;;;;;;11.87;6.13;;;;;;;3.42;74.20;95657.72;4960428;28;20194;-76
2021/12/18 13:51:44;;;;;;;9.90;7.07;;;;;;;3.51;73.07;95666.09;4961539;28;20260;-70
2021/12/18 13:54:12;;;;;;;9.73;6.93;;;;;;;3.35;73.18;95670.22;4961017;28;20202;-74
2021/12/18 13:56:45;;;;;;;12.27;7.77;;;;;;;3.18;72.93;95672.69;4961307;28;20210;-75
2021/12/18 13:59:17;;;;;;;8.77;6.10;;;;;;;3.12;74.15;95675.16;4960724;28;20201;-76
2021/12/18 14:01:44;;;;;;;7.30;4.70;;;;;;;2.98;75.93;95674.22;4960692;28;20260;-70
2021/12/18 14:04:15;;;;;;;7.90;4.07;;;;;;;3.13;76.82;95684.38;4960263;28;20648;-76
2021/12/18 14:06:44;;;;;;;5.97;3.80;;;;;;;3.02;78.33;95688.47;4959941;28;20216;-73
2021/12/18 14:09:20;;;;;;;3.00;2.80;;;;;;;2.93;79.53;95690.97;4960330;28;20198;-77
2021/12/18 14:11:54;;;;;;;4.67;3.03;;;;;;;2.92;79.87;95682.59;4960854;28;20201;-76
2021/12/18 14:14:34;;;;;;;3.37;3.10;;;;;;;2.96;79.80;95693.50;4960446;28;20328;-74
2021/12/18 14:17:01;;;;;;;3.07;2.83;;;;;;;2.89;80.94;95689.25;4961846;28;20650;-75
2021/12/18 14:19:29;;;;;;;3.10;2.90;;;;;;;2.49;82.39;95700.69;4961987;28;20214;-75
2021/12/18 14:21:57;;;;;;;3.70;2.90;;;;;;;2.30;83.76;95692.16;4954622;28;20234;-72
2021/12/18 14:24:25;;;;;;;3.33;3.03;;;;;;;2.34;83.68;95698.91;4942448;29;20230;-75
2021/12/18 14:27:00;;;;;;;3.20;2.90;;;;;;;2.49;84.45;95701.50;4942110;29;20207;-75
2021/12/18 14:29:32;;;;;;;3.40;2.70;;;;;;;2.60;83.03;95687.41;4942493;29;20202;-73
2021/12/18 14:32:00;;;;;;;3.83;3.57;;;;;;;2.67;83.26;95689.13;4942901;29;20211;-75
2021/12/18 14:34:28;;;;;;;23.23;12.20;;;;;;;2.61;82.52;95699.13;4942552;29;20265;-73
2021/12/18 14:37:02;;;;;;;19.97;11.30;;;;;;;2.52;82.97;95694.03;4941986;28;20273;-73
2021/12/18 14:39:37;;;;;;;12.93;7.40;;;;;;;2.32;84.21;95681.31;4942514;29;20202;-74
2021/12/18 14:42:12;;;;;;;6.40;4.60;;;;;;;2.46;84.47;95688.13;4942191;29;20212;-74
2021/12/18 14:44:55;;;;;;;3.90;3.50;;;;;;;2.42;83.16;95691.44;4942278;29;20245;-73
2021/12/18 14:47:28;;;;;;;3.50;3.20;;;;;;;2.41;83.22;95694.78;4942020;29;20218;-69
2021/12/18 14:50:11;;;;;;;3.97;3.53;;;;;;;2.38;82.55;95695.59;4941959;29;20210;-73
2021/12/18 14:53:12;;;;;;;3.57;3.27;;;;;;;2.36;83.32;95699.75;4941966;29;20222;-73
2021/12/18 14:55:48;;;;;;;3.37;3.10;;;;;;;2.37;82.21;95698.94;4942122;29;20201;-75
2021/12/18 14:58:17;;;;;;;3.80;3.30;;;;;;;2.46;81.68;95698.16;4942483;29;20718;-75
2021/12/18 15:00:48;;;;;;;3.37;3.07;;;;;;;2.47;81.73;95700.69;4942420;29;20648;-73
2021/12/18 15:03:20;;;;;;;3.40;3.10;;;;;;;2.42;80.97;95702.31;4942271;29;20210;-74
2021/12/18 15:06:03;;;;;;;3.73;3.37;;;;;;;2.36;81.64;95712.28;4942182;29;20996;-73
2021/12/18 15:08:37;;;;;;;3.17;2.97;;;;;;;2.24;82.60;95709.66;4941811;29;21585;-74
2021/12/18 15:11:12;;;;;;;4.87;2.90;;;;;;;2.41;81.54;95708.16;4943607;28;20206;-73
2021/12/18 15:13:45;;;;;;;3.27;3.03;;;;;;;2.41;80.79;95710.66;4945413;29;20869;-73
2021/12/18 15:16:27;;;;;;;6.27;5.20;;;;;;;2.49;79.93;95704.03;4945884;29;20206;-74
2021/12/18 15:18:58;;;;;;;4.50;3.50;;;;;;;2.42;80.62;95704.00;4944347;29;20214;-74
2021/12/18 15:21:26;;;;;;;3.77;3.40;;;;;;;2.41;80.55;95700.63;4946002;29;20233;-75
2021/12/18 15:23:53;;;;;;;7.17;3.70;;;;;;;2.52;80.09;95698.19;4945688;29;20248;-73
2021/12/18 15:26:21;;;;;;;3.67;3.03;;;;;;;2.62;78.92;95703.31;4945762;29;20677;-68
2021/12/18 15:28:48;;;;;;;3.10;2.80;;;;;;;2.62;78.75;95700.78;4945665;29;20198;-71
2021/12/18 15:31:16;;;;;;;3.07;2.80;;;;;;;2.51;78.31;95706.56;4945823;29;20257;-72
2021/12/18 15:33:43;;;;;;;3.70;3.27;;;;;;;2.61;79.02;95713.31;4946029;29;20265;-67
2021/12/18 15:36:09;;;;;;;6.50;5.00;;;;;;;2.65;79.00;95710.84;4945789;29;20211;-72
2021/12/18 15:38:36;;;;;;;5.73;4.70;;;;;;;2.69;79.30;95726.78;4945205;29;20202;-74
2021/12/18 15:41:04;;;;;;;4.33;3.63;;;;;;;2.31;79.67;95726.47;4943733;29;20205;-69
2021/12/18 15:43:33;;;;;;;11.10;6.73;;;;;;;2.07;79.04;95734.59;4944050;29;20214;-73
2021/12/18 15:46:00;;;;;;;11.70;8.37;;;;;;;2.22;79.50;95743.94;4944996;29;20211;-75
2021/12/18 15:48:27;;;;;;;14.33;7.33;;;;;;;2.26;78.57;95748.13;4944703;29;20226;-73
2021/12/18 15:50:54;;;;;;;11.43;7.53;;;;;;;2.31;78.12;95744.84;4944470;29;20217;-75
2021/12/18 15:53:21;;;;;;;28.93;14.47;;;;;;;2.30;77.60;95742.34;4944542;29;20210;-70
2021/12/18 15:55:48;;;;;;;72.33;31.53;;;;;;;2.15;78.95;95737.19;4945308;29;20259;-70
2021/12/18 15:58:15;;;;;;;13.47;8.50;;;;;;;2.31;78.27;95741.50;4944991;29;20599;-70
2021/12/18 16:00:43;;;;;;;10.47;6.63;;;;;;;2.48;76.07;95737.47;4944952;29;20265;-72
2021/12/18 16:03:11;;;;;;;9.37;7.00;;;;;;;2.33;77.11;95748.22;4944929;29;20210;-70
2021/12/18 16:05:39;;;;;;;6.63;5.53;;;;;;;2.25;77.63;95751.47;4944821;28;20791;-73
2021/12/18 16:08:09;;;;;;;7.20;5.77;;;;;;;2.55;77.17;95751.75;4944770;29;20637;-71
2021/12/18 16:10:38;;;;;;;7.17;5.53;;;;;;;2.72;75.63;95749.41;4945224;29;20635;-72
2021/12/18 16:13:06;;;;;;;6.77;6.03;;;;;;;2.87;74.64;95751.16;4944647;29;20333;-69
2021/12/18 16:15:34;;;;;;;7.67;6.00;;;;;;;2.52;75.45;95744.19;4944992;29;20221;-74
2021/12/18 16:18:03;;;;;;;10.03;5.93;;;;;;;2.44;76.72;95760.88;4944748;29;20859;-75
2021/12/18 16:20:30;;;;;;;6.50;5.90;;;;;;;2.44;77.09;95758.38;4943840;29;20286;-73
2021/12/18 16:22:58;;;;;;;7.23;6.00;;;;;;;2.30;78.48;95762.41;4943582;28;21301;-71
2021/12/18 16:25:28;;;;;;;6.40;5.67;;;;;;;2.29;79.06;95765.72;4943957;29;20269;-72
2021/12/18 16:27:56;;;;;;;13.67;8.33;;;;;;;2.33;78.27;95767.44;4944227;29;20636;-74
2021/12/18 16:30:27;;;;;;;22.97;11.67;;;;;;;2.38;79.27;95765.81;4944221;29;20206;-70
2021/12/18 16:32:54;;;;;;;54.20;22.33;;;;;;;2.42;78.63;95762.53;4944253;28;20202;-70
2021/12/18 16:35:23;;;;;;;85.07;37.87;;;;;;;2.41;78.77;95777.56;4944490;28;20289;-72
2021/12/18 16:38:06;;;;;;;149.13;62.37;;;;;;;2.45;77.86;95775.09;4944091;29;20564;-74
2021/12/18 16:40:34;;;;;;;138.87;56.70;;;;;;;2.53;78.44;95783.50;4944256;29;20202;-69
2021/12/18 16:43:01;;;;;;;105.20;45.30;;;;;;;2.48;77.92;95781.78;4944294;29;20704;-72
2021/12/18 16:45:28;;;;;;;80.87;37.63;;;;;;;2.47;78.81;95775.94;4943903;29;20241;-71
2021/12/18 16:47:55;;;;;;;81.83;35.70;;;;;;;2.45;78.00;95780.13;4944417;28;20707;-76
2021/12/18 16:50:24;;;;;;;68.60;32.23;;;;;;;2.48;78.24;95782.63;4942910;29;20214;-74
2021/12/18 16:52:50;;;;;;;56.67;27.57;;;;;;;2.52;78.64;95789.34;4943634;29;20203;-71
2021/12/18 16:55:17;;;;;;;49.73;23.10;;;;;;;2.39;77.36;95790.94;4944265;28;20297;-69
2021/12/18 16:57:44;;;;;;;30.60;17.17;;;;;;;2.57;77.14;95790.25;4944251;28;20210;-71
2021/12/18 17:00:12;;;;;;;31.93;15.83;;;;;;;2.64;77.00;95789.47;4944539;29;20723;-74
2021/12/18 17:02:43;;;;;;;28.50;14.27;;;;;;;2.69;76.32;95797.91;4944083;28;20252;-75
2021/12/18 17:05:10;;;;;;;19.97;10.10;;;;;;;2.83;76.04;95797.16;4944141;28;20573;-74
2021/12/18 17:07:38;;;;;;;15.67;9.57;;;;;;;2.94;75.37;95798.09;4944193;28;20202;-73
2021/12/18 17:10:07;;;;;;;31.73;17.53;;;;;;;2.94;75.61;95793.91;4942541;29;20684;-74
2021/12/18 17:12:35;;;;;;;27.93;13.43;;;;;;;2.72;76.75;95812.94;4942068;29;20210;-70
2021/12/18 17:15:03;;;;;;;17.90;10.97;;;;;;;2.63;77.59;95817.06;4942217;29;20191;-74
2021/12/18 17:17:30;;;;;;;17.10;11.10;;;;;;;2.65;77.55;95813.75;4942569;28;20206;-76
2021/12/18 17:19:58;;;;;;;12.07;8.10;;;;;;;2.71;76.66;95816.31;4942921;28;20206;-71
2021/12/18 17:22:25;;;;;;;10.57;6.00;;;;;;;2.72;76.77;95810.44;4942636;29;20246;-74
2021/12/18 17:24:53;;;;;;;6.10;5.33;;;;;;;2.77;77.85;95809.63;4943146;29;20246;-74
2021/12/18 17:27:20;;;;;;;6.67;5.17;;;;;;;2.74;77.35;95811.28;4943512;29;20207;-74
2021/12/18 17:29:47;;;;;;;9.60;5.03;;;;;;;2.79;77.55;95813.00;4943143;29;20206;-69
2021/12/18 17:32:14;;;;;;;6.30;5.17;;;;;;;2.83;79.01;95819.75;4943163;29;20217;-71
2021/12/18 17:34:40;;;;;;;20.93;10.23;;;;;;;2.88;78.96;95828.16;4942936;28;20221;-75
2021/12/18 17:37:07;;;;;;;11.83;8.00;;;;;;;2.82;79.02;95820.56;4943723;28;20225;-73
2021/12/18 17:39:34;;;;;;;27.67;13.10;;;;;;;2.87;79.64;95822.28;4943358;29;20194;-77
2021/12/18 17:42:03;;;;;;;11.07;8.30;;;;;;;2.84;80.25;95817.25;4943634;29;20210;-76
2021/12/18 17:44:30;;;;;;;11.37;7.10;;;;;;;2.81;80.31;95819.72;4943134;29;20821;-71
2021/12/18 17:46:57;;;;;;;8.43;6.60;;;;;;;2.62;80.93;95813.72;4943507;29;20638;-71
2021/12/18 17:49:24;;;;;;;10.90;7.63;;;;;;;2.63;81.20;95827.94;4943520;29;20207;-74
2021/12/18 17:51:52;;;;;;;11.30;7.33;;;;;;;2.57;81.28;95824.53;4943284;29;20240;-74
2021/12/18 17:54:19;;;;;;;8.47;7.27;;;;;;;2.50;81.23;95816.09;4943283;28;20285;-75
2021/12/18 17:56:46;;;;;;;11.53;7.70;;;;;;;2.48;82.10;95820.25;4943370;29;20210;-73
2021/12/18 17:59:14;;;;;;;9.23;7.70;;;;;;;2.43;81.93;95824.41;4942979;28;21480;-72
2021/12/18 18:01:41;;;;;;;11.80;7.60;;;;;;;2.58;81.52;95824.53;4942553;29;20214;-73
2021/12/18 18:04:08;;;;;;;9.30;6.77;;;;;;;2.51;81.03;95826.97;4942826;29;20213;-74
2021/12/18 18:06:35;;;;;;;10.00;7.43;;;;;;;2.41;81.22;95831.06;4942897;28;20213;-72
2021/12/18 18:09:03;;;;;;;10.23;7.03;;;;;;;2.36;82.23;95835.19;4942680;29;20732;-71
2021/12/18 18:11:33;;;;;;;10.33;7.07;;;;;;;2.27;82.00;95838.44;4942656;29;20380;-73
2021/12/18 18:14:00;;;;;;;8.33;6.70;;;;;;;2.20;82.28;95836.72;4941991;29;20689;-73
2021/12/18 18:16:29;;;;;;;9.00;6.50;;;;;;;2.24;81.76;95845.09;4942880;29;20863;-73
2021/12/18 18:18:57;;;;;;;7.07;6.47;;;;;;;2.42;81.54;95837.78;4942676;29;20320;-74
2021/12/18 18:21:26;;;;;;;7.37;6.43;;;;;;;2.50;81.05;95837.84;4942842;28;20301;-70
2021/12/18 18:23:55;;;;;;;7.93;6.83;;;;;;;2.30;81.18;95837.63;4940909;29;20328;-72
2021/12/18 18:26:22;;;;;;;7.03;6.40;;;;;;;2.29;82.21;95835.94;4941742;28;20241;-75
2021/12/18 18:28:50;;;;;;;8.30;5.63;;;;;;;2.08;82.45;95843.25;4942520;29;20753;-72
2021/12/18 18:31:18;;;;;;;10.50;6.27;;;;;;;2.12;83.02;95847.47;4942759;29;20211;-73
2021/12/18 18:33:47;;;;;;;7.33;6.23;;;;;;;2.18;82.31;95840.88;4941031;29;20207;-69
2021/12/18 18:36:15;;;;;;;8.87;6.63;;;;;;;2.07;83.13;95839.91;4941897;29;21229;-74
2021/12/18 18:38:42;;;;;;;7.23;6.57;;;;;;;2.24;82.51;95830.03;4941339;29;20618;-73
2021/12/18 18:41:09;;;;;;;6.70;6.10;;;;;;;2.31;82.05;95836.81;4942225;29;20202;-74
2021/12/18 18:43:42;;;;;;;7.20;6.43;;;;;;;2.22;81.73;95839.25;4941896;29;20217;-75
2021/12/18 18:46:14;;;;;;;6.43;5.80;;;;;;;2.20;82.49;95840.88;4941704;28;20245;-73
2021/12/18 18:48:42;;;;;;;10.43;6.80;;;;;;;2.38;81.85;95836.06;4942223;29;20226;-74
2021/12/18 18:51:13;;;;;;;7.10;6.50;;;;;;;2.45;81.55;95832.78;4942194;28;20202;-73
2021/12/18 18:53:41;;;;;;;7.20;5.97;;;;;;;2.26;81.50;95835.91;4942035;29;20317;-73
2021/12/18 18:56:10;;;;;;;7.77;6.43;;;;;;;2.18;82.29;95837.53;4941434;28;20238;-70
2021/12/18 18:58:38;;;;;;;7.23;6.47;;;;;;;2.12;82.78;95834.94;4940809;29;20210;-71
2021/12/18 19:01:10;;;;;;;89.97;37.23;;;;;;;1.88;83.89;95826.31;4939315;29;20311;-75
2021/12/18 19:03:38;;;;;;;12.10;8.30;;;;;;;1.93;83.71;95823.88;4940469;29;20257;-74
2021/12/18 19:06:06;;;;;;;7.60;6.87;;;;;;;1.98;83.04;95825.56;4939156;29;20671;-75
2021/12/18 19:08:36;;;;;;;7.70;6.90;;;;;;;1.94;83.22;95825.56;4941578;29;20272;-72
2021/12/18 19:11:03;;;;;;;8.60;6.73;;;;;;;1.97;83.73;95838.13;4940792;29;20205;-75
2021/12/18 19:13:32;;;;;;;57.90;26.63;;;;;;;1.86;83.80;95832.13;4942384;29;20206;-74
2021/12/18 19:16:04;;;;;;;19.63;13.27;;;;;;;2.00;83.91;95823.09;4942221;29;21217;-74
2021/12/18 19:18:39;;;;;;;10.53;7.73;;;;;;;2.01;83.83;95830.63;4942054;28;20213;-72
2021/12/18 19:21:11;;;;;;;8.33;6.63;;;;;;;1.93;83.99;95834.72;4940599;29;20273;-72
2021/12/18 19:23:41;;;;;;;7.23;6.53;;;;;;;1.85;84.29;95823.75;4940098;29;20245;-75
2021/12/18 19:26:09;;;;;;;9.73;6.83;;;;;;;1.78;84.49;95832.03;4941583;29;20234;-73
2021/12/18 19:28:37;;;;;;;7.07;6.30;;;;;;;1.91;84.29;95840.53;4942331;29;20213;-71
2021/12/18 19:31:10;;;;;;;6.47;5.97;;;;;;;1.84;83.64;95832.09;4941730;29;20713;-69
2021/12/18 19:33:37;;;;;;;8.50;6.53;;;;;;;1.83;83.33;95837.94;4941851;28;20222;-72
2021/12/18 19:36:07;;;;;;;9.70;7.17;;;;;;;1.69;84.71;95844.44;4941658;29;20297;-71
2021/12/18 19:38:35;;;;;;;7.50;5.97;;;;;;;1.76;84.20;95843.69;4941967;29;20748;-76
2021/12/18 19:41:04;;;;;;;8.13;6.23;;;;;;;1.76;83.53;95852.88;4941643;29;20234;-70
2021/12/18 19:43:31;;;;;;;7.73;6.33;;;;;;;1.93;84.02;95846.41;4941427;29;20210;-70
2021/12/18 19:46:00;;;;;;;6.97;6.27;;;;;;;1.98;83.78;95843.13;4941353;29;20328;-77
2021/12/18 19:48:27;;;;;;;8.83;6.60;;;;;;;2.01;81.91;95844.81;4942141;28;20685;-75
2021/12/18 19:50:54;;;;;;;11.20;6.37;;;;;;;1.97;82.33;95851.50;4941472;29;20588;-72
2021/12/18 19:53:23;;;;;;;7.03;6.33;;;;;;;1.96;81.71;95829.75;4941564;29;20202;-70
2021/12/18 19:55:50;;;;;;;7.00;6.40;;;;;;;1.96;81.38;95837.28;4941139;29;20211;-70
2021/12/18 19:58:18;;;;;;;6.43;5.83;;;;;;;1.83;81.98;95832.94;4944599;28;20206;-71
2021/12/18 20:00:46;;;;;;;9.40;6.00;;;;;;;1.69;83.30;95836.94;4945134;29;20677;-71
2021/12/18 20:05:55;;;;;;;6.17;5.67;;;;;;;1.86;81.87;95834.63;4944748;29;20710;-71
2021/12/18 20:08:23;;;;;;;6.90;6.20;;;;;;;1.75;81.48;95829.47;4943660;29;20210;-74
2021/12/18 20:10:51;;;;;;;7.93;6.20;;;;;;;1.77;82.16;95825.31;4945497;29;20234;-74
2021/12/18 20:13:20;;;;;;;7.60;5.70;;;;;;;1.71;81.24;95825.28;4945304;28;20209;-75
2021/12/18 20:15:47;;;;;;;10.90;7.13;;;;;;;1.65;82.64;95835.22;4945233;29;20313;-72
2021/12/18 20:18:14;;;;;;;7.93;6.27;;;;;;;1.71;81.98;95835.28;4944447;29;20250;-73
2021/12/18 20:20:41;;;;;;;9.93;6.57;;;;;;;1.77;82.10;95835.34;4945051;29;20210;-72
2021/12/18 20:23:10;;;;;;;8.53;6.07;;;;;;;1.74;81.58;95832.81;4944628;29;20337;-73
2021/12/18 20:25:39;;;;;;;7.30;6.40;;;;;;;1.60;82.09;95842.66;4945007;29;20281;-75
2021/12/18 20:28:11;;;;;;;6.70;6.00;;;;;;;1.85;81.87;95840.47;4944592;29;20569;-72
2021/12/18 20:30:46;;;;;;;7.23;6.53;;;;;;;1.77;80.89;95829.50;4944290;29;20320;-74
2021/12/18 20:33:15;;;;;;;9.23;6.13;;;;;;;1.77;80.84;95840.34;4944761;29;20229;-74
2021/12/18 20:35:44;;;;;;;8.90;7.13;;;;;;;1.66;81.81;95832.72;4943325;29;20202;-75
2021/12/18 20:38:12;;;;;;;11.03;7.90;;;;;;;1.89;81.22;95829.66;4943754;29;20206;-74
2021/12/18 20:40:40;;;;;;;36.43;17.43;;;;;;;1.74;81.24;95832.81;4942700;29;20202;-70
2021/12/18 20:43:09;;;;;;;17.10;10.17;;;;;;;1.73;82.04;95833.66;4942698;29;20202;-75
2021/12/18 20:45:36;;;;;;;7.43;6.70;;;;;;;1.83;81.26;95830.41;4942423;29;20257;-73
2021/12/18 20:48:06;;;;;;;9.93;5.87;;;;;;;1.59;81.40;95830.94;4943271;29;20205;-75
2021/12/18 20:50:33;;;;;;;6.57;5.37;;;;;;;1.61;81.71;95834.31;4943467;29;20541;-73
2021/12/18 20:53:02;;;;;;;6.87;5.70;;;;;;;1.61;81.25;95830.97;4943740;29;20210;-73
2021/12/18 20:55:31;;;;;;;5.53;4.70;;;;;;;1.54;81.83;95830.03;4942883;29;20673;-74
2021/12/18 20:57:58;;;;;;;8.87;5.43;;;;;;;1.44;80.46;95810.72;4944216;29;20202;-72
2021/12/18 21:00:30;;;;;;;8.10;7.30;;;;;;;1.61;80.46;95833.47;4944132;29;20202;-72
2021/12/18 21:02:58;;;;;;;6.23;5.63;;;;;;;1.74;79.25;95829.44;4944147;29;20205;-75
2021/12/18 21:05:28;;;;;;;6.13;5.57;;;;;;;1.87;79.56;95827.13;4944165;29;20799;-71
2021/12/18 21:07:57;;;;;;;6.27;4.90;;;;;;;1.80;80.00;95835.38;4944467;28;20202;-74
2021/12/18 21:10:26;;;;;;;5.40;4.87;;;;;;;1.81;78.96;95827.06;4943532;29;21309;-71
2021/12/18 21:12:53;;;;;;;6.30;4.20;;;;;;;1.81;78.85;95819.53;4943811;29;21201;-73
2021/12/18 21:15:20;;;;;;;5.70;5.20;;;;;;;1.68;79.20;95805.19;4943582;29;20211;-70
2021/12/18 21:17:49;;;;;;;5.53;4.67;;;;;;;1.74;79.08;95815.25;4944047;29;20379;-71
2021/12/18 21:20:17;;;;;;;6.13;5.53;;;;;;;1.49;80.39;95818.28;4943956;29;20210;-72
2021/12/18 21:22:46;;;;;;;10.17;7.07;;;;;;;1.58;79.59;95813.41;4943374;29;20238;-70
2021/12/18 21:25:15;;;;;;;14.63;8.57;;;;;;;1.65;79.24;95811.00;4943506;29;20214;-73
2021/12/18 21:27:42;;;;;;;7.67;5.33;;;;;;;1.66;79.84;95812.69;4943399;29;20306;-72
2021/12/18 21:30:11;;;;;;;5.03;4.63;;;;;;;1.76;79.39;95807.75;4943186;29;20217;-75
2021/12/18 21:32:39;;;;;;;7.37;5.23;;;;;;;1.78;78.54;95811.97;4943654;29;20202;-71
2021/12/18 21:38:07;;;;;;;8.03;5.10;;;;;;;1.70;78.96;95811.91;4883685;29;20774;-73
2021/12/18 21:40:36;;;;;;;4.43;4.13;;;;;;;1.60;78.80;95804.25;4929703;28;20210;-75
2021/12/18 21:43:03;;;;;;;5.10;4.70;;;;;;;1.49;80.10;95790.72;4943078;29;20217;-71
2021/12/18 21:45:30;;;;;;;5.07;4.53;;;;;;;1.62;78.98;95793.41;4943244;29;20202;-75
2021/12/18 21:48:00;;;;;;;5.40;4.93;;;;;;;1.56;79.52;95797.50;4943528;28;20261;-70
2021/12/18 21:50:28;;;;;;;5.27;4.83;;;;;;;1.66;79.84;95799.31;4942926;29;20206;-71
2021/12/18 21:52:55;;;;;;;8.53;4.60;;;;;;;1.55;79.75;95793.31;4943389;29;20207;-72
2021/12/18 21:55:23;;;;;;;5.47;4.87;;;;;;;1.59;80.28;95793.38;4943168;29;20214;-72
2021/12/18 21:57:51;;;;;;;5.23;3.80;;;;;;;1.54;80.29;95787.47;4943193;29;20293;-74
2021/12/18 22:00:19;;;;;;;5.03;4.57;;;;;;;1.66;79.80;95796.81;4943150;29;20537;-74
2021/12/18 22:02:46;;;;;;;8.07;4.60;;;;;;;1.83;79.42;95790.31;4942976;29;20882;-73
2021/12/18 22:05:13;;;;;;;6.43;4.50;;;;;;;1.77;78.86;95785.22;4942632;29;20647;-71
2021/12/18 22:07:40;;;;;;;4.30;4.00;;;;;;;1.99;77.52;95792.16;4942839;29;20664;-73
2021/12/18 22:10:09;;;;;;;4.80;4.30;;;;;;;2.05;77.81;95789.72;4942988;29;20210;-73
2021/12/18 22:12:37;;;;;;;6.27;3.83;;;;;;;1.70;78.45;95786.84;4942863;29;20207;-71
2021/12/18 22:15:05;;;;;;;4.37;3.97;;;;;;;1.86;78.96;95784.50;4942498;29;20202;-72
2021/12/18 22:17:32;;;;;;;4.13;3.50;;;;;;;1.99;78.71;95777.13;4942619;29;20198;-73
2021/12/18 22:19:58;;;;;;;4.47;3.70;;;;;;;2.00;77.93;95777.97;4941674;28;20210;-71
2021/12/18 22:22:25;;;;;;;4.80;4.37;;;;;;;1.88;77.63;95783.69;4942012;28;20435;-71
2021/12/18 22:24:52;;;;;;;4.67;3.90;;;;;;;2.05;77.18;95779.72;4942078;29;20233;-73
2021/12/18 22:27:19;;;;;;;4.27;3.90;;;;;;;2.03;76.22;95773.84;4942375;28;20725;-69
2021/12/18 22:29:47;;;;;;;5.80;4.00;;;;;;;1.98;76.79;95764.59;4942578;28;20293;-73
2021/12/18 22:32:14;;;;;;;3.73;3.43;;;;;;;1.75;76.90;95760.97;4942264;29;20225;-71
2021/12/18 22:34:41;;;;;;;4.93;4.40;;;;;;;1.54;77.97;95766.56;4942367;29;20198;-75
2021/12/18 22:37:09;;;;;;;4.83;4.30;;;;;;;1.67;77.99;95766.75;4942788;29;20210;-71
2021/12/18 22:39:38;;;;;;;4.73;4.17;;;;;;;1.64;77.32;95765.88;4942859;29;20202;-72
2021/12/18 22:42:06;;;;;;;4.53;3.50;;;;;;;1.66;77.21;95769.25;4942352;28;20213;-74
2021/12/18 22:44:32;;;;;;;4.37;3.20;;;;;;;1.47;78.16;95754.81;4942171;29;20265;-71
2021/12/18 22:47:01;;;;;;;3.83;3.53;;;;;;;1.39;77.89;95761.38;4942646;29;20245;-69
2021/12/18 22:49:28;;;;;;;2.63;2.43;;;;;;;1.45;77.67;95756.47;4942720;29;20670;-73
2021/12/18 22:51:55;;;;;;;3.23;3.03;;;;;;;1.35;79.15;95748.81;4942307;29;20210;-71
2021/12/18 22:54:21;;;;;;;4.03;3.13;;;;;;;1.36;78.43;95748.00;4942282;29;20351;-76
2021/12/18 22:56:48;;;;;;;3.30;2.90;;;;;;;1.37;77.57;95743.84;4942531;29;20210;-73
2021/12/18 22:59:15;;;;;;;3.73;2.93;;;;;;;1.34;78.14;95739.63;4942226;29;20207;-69
2021/12/18 23:01:44;;;;;;;3.57;3.27;;;;;;;1.45;77.62;95733.91;4942197;29;20206;-73
2021/12/18 23:04:12;;;;;;;3.37;3.13;;;;;;;1.56;78.31;95735.72;4942309;29;20544;-71
2021/12/18 23:06:40;;;;;;;4.07;3.20;;;;;;;1.74;76.65;95734.22;4942389;29;20230;-71
2021/12/18 23:09:08;;;;;;;2.90;2.70;;;;;;;1.72;77.23;95711.69;4942583;29;20946;-73
2021/12/18 23:11:41;;;;;;;3.40;3.10;;;;;;;1.60;77.35;95722.41;4941601;29;20273;-68
2021/12/18 23:14:27;;;;;;;3.40;3.10;;;;;;;1.72;76.50;95724.22;4942371;29;20917;-71
2021/12/18 23:17:17;;;;;;;4.30;3.60;;;;;;;1.60;77.13;95727.41;4942478;29;20210;-71
2021/12/18 23:22:29;;;;;;;3.73;3.43;;;;;;;1.33;77.40;95705.38;4941505;28;20250;-73
2021/12/18 23:24:56;;;;;;;3.43;3.13;;;;;;;1.51;77.20;95717.28;4942147;29;20685;-71
2021/12/18 23:27:23;;;;;;;3.73;3.23;;;;;;;1.48;77.78;95712.25;4941961;29;20283;-73
2021/12/18 23:29:50;;;;;;;3.80;3.43;;;;;;;1.25;78.72;95698.59;4942465;29;20333;-73
2021/12/18 23:32:18;;;;;;;6.07;3.60;;;;;;;1.03;79.37;95697.50;4943325;28;20206;-70
2021/12/18 23:34:46;;;;;;;4.10;3.80;;;;;;;1.27;78.52;95697.81;4945809;29;20213;-76
2021/12/18 23:37:13;;;;;;;3.57;3.33;;;;;;;1.11;79.24;95675.91;4945840;29;20212;-75
2021/12/18 23:39:43;;;;;;;3.17;2.97;;;;;;;1.35;78.67;95696.25;4945665;29;20280;-71
2021/12/18 23:42:12;;;;;;;5.90;4.43;;;;;;;1.30;78.59;95689.50;4946072;29;20589;-74
2021/12/18 23:47:24;;;;;;;4.13;3.83;;;;;;;1.20;79.66;95681.03;4945369;29;20244;-74
2021/12/18 23:49:54;;;;;;;5.10;4.27;;;;;;;1.17;79.11;95677.66;4945733;29;20218;-70
2021/12/18 23:52:21;;;;;;;6.07;3.73;;;;;;;1.38;78.31;95679.56;4945854;29;20676;-70
2021/12/18 23:54:48;;;;;;;4.90;3.83;;;;;;;1.12;78.65;95676.75;4945767;29;20206;-71
2021/12/18 23:57:15;;;;;;;6.20;4.47;;;;;;;0.98;80.33;95671.59;4945315;29;20604;-72
2021/12/18 23:59:41;;;;;;;5.60;5.00;;;;;;;0.88;79.74;95672.28;4944265;29;20643;-71
